createdAt,value
2018-09-18T00:00:05.430Z,100797.17
2018-09-18T00:02:33.658Z,100789.93
2018-09-18T00:05:02.349Z,100789.29
2018-09-18T00:07:30.719Z,100788.03
2018-09-18T00:09:58.946Z,100791.84
2018-09-18T00:12:27.176Z,100782.49
2018-09-18T00:14:55.418Z,100783.83
2018-09-18T00:17:23.635Z,100772.97
2018-09-18T00:19:51.853Z,100776.21
2018-09-18T00:22:20.103Z,100776.08
2018-09-18T00:24:48.339Z,100771.59
2018-09-18T00:27:16.553Z,100769.73
2018-09-18T00:29:44.769Z,100777.65
2018-09-18T00:32:12.994Z,100778.00
2018-09-18T00:34:41.222Z,100772.43
2018-09-18T00:37:09.456Z,100764.48
2018-09-18T00:39:37.710Z,100761.50
2018-09-18T00:42:05.956Z,100756.18
2018-09-18T00:44:34.198Z,100758.06
2018-09-18T00:47:02.423Z,100754.05
2018-09-18T00:49:30.666Z,100756.88
2018-09-18T00:51:58.892Z,100752.66
2018-09-18T00:54:27.105Z,100750.02
2018-09-18T00:56:55.377Z,100754.31
2018-09-18T00:59:23.593Z,100749.25
2018-09-18T01:01:52.597Z,100745.08
2018-09-18T01:04:20.910Z,100748.06
2018-09-18T01:06:49.169Z,100752.34
2018-09-18T01:09:17.382Z,100744.70
2018-09-18T01:11:45.613Z,100748.28
2018-09-18T01:14:13.841Z,100748.19
2018-09-18T01:16:42.075Z,100739.53
2018-09-18T01:19:10.289Z,100747.34
2018-09-18T01:21:38.550Z,100739.08
2018-09-18T01:24:06.773Z,100742.92
2018-09-18T01:26:35.002Z,100735.77
2018-09-18T01:29:03.235Z,100734.15
2018-09-18T01:31:31.457Z,100737.14
2018-09-18T01:33:59.673Z,100734.98
2018-09-18T01:36:27.925Z,100737.97
2018-09-18T01:38:56.160Z,100737.33
2018-09-18T01:41:24.389Z,100744.31
2018-09-18T01:43:52.662Z,100737.94
2018-09-18T01:46:20.834Z,100740.05
2018-09-18T01:48:49.062Z,100745.10
2018-09-18T01:51:17.264Z,100736.30
2018-09-18T01:53:45.485Z,100736.52
2018-09-18T01:56:13.713Z,100728.42
2018-09-18T01:58:41.934Z,100727.02
2018-09-18T02:01:10.158Z,100725.54
2018-09-18T02:03:38.406Z,100724.49
2018-09-18T02:06:06.708Z,100719.12
2018-09-18T02:08:34.905Z,100720.97
2018-09-18T02:11:03.159Z,100725.89
2018-09-18T02:13:31.357Z,100726.31
2018-09-18T02:15:59.593Z,100719.42
2018-09-18T02:18:27.814Z,100717.84
2018-09-18T02:20:56.030Z,100722.47
2018-09-18T02:23:24.248Z,100716.47
2018-09-18T02:25:52.474Z,100712.69
2018-09-18T02:28:20.685Z,100712.00
2018-09-18T02:30:48.914Z,100715.19
2018-09-18T02:33:17.143Z,100710.59
2018-09-18T02:35:45.349Z,100716.89
2018-09-18T02:38:13.592Z,100714.23
2018-09-18T02:40:41.814Z,100718.02
2018-09-18T02:43:10.045Z,100719.54
2018-09-18T02:45:38.470Z,100715.88
2018-09-18T02:48:06.692Z,100717.24
2018-09-18T02:50:34.902Z,100714.53
2018-09-18T02:53:03.138Z,100710.92
2018-09-18T02:55:31.350Z,100717.22
2018-09-18T02:57:59.574Z,100709.99
2018-09-18T03:00:27.798Z,100712.30
2018-09-18T03:02:56.012Z,100710.36
2018-09-18T03:05:24.259Z,100716.22
2018-09-18T03:07:52.468Z,100717.16
2018-09-18T03:10:20.697Z,100709.52
2018-09-18T03:12:48.920Z,100709.97
2018-09-18T03:15:17.164Z,100708.53
2018-09-18T03:17:45.380Z,100709.28
2018-09-18T03:20:13.634Z,100708.69
2018-09-18T03:22:41.831Z,100714.23
2018-09-18T03:25:10.086Z,100710.20
2018-09-18T03:27:38.304Z,100708.86
2018-09-18T03:30:06.554Z,100701.88
2018-09-18T03:32:34.766Z,100705.34
2018-09-18T03:35:02.977Z,100706.32
2018-09-18T03:37:31.227Z,100707.97
2018-09-18T03:39:59.462Z,100706.33
2018-09-18T03:42:27.702Z,100699.41
2018-09-18T03:44:55.918Z,100699.84
2018-09-18T03:47:24.139Z,100697.17
2018-09-18T03:49:53.301Z,100687.33
2018-09-18T03:52:21.529Z,100688.70
2018-09-18T03:54:49.813Z,100685.44
2018-09-18T03:57:18.027Z,100688.42
2018-09-18T03:59:46.276Z,100685.71
2018-09-18T04:02:14.498Z,100688.06
2018-09-18T04:04:43.798Z,100694.05
2018-09-18T04:07:12.023Z,100693.05
2018-09-18T04:09:40.246Z,100686.48
2018-09-18T04:12:08.450Z,100684.84
2018-09-18T04:14:36.673Z,100676.61
2018-09-18T04:17:04.997Z,100676.63
2018-09-18T04:19:33.241Z,100681.06
2018-09-18T04:22:01.466Z,100676.95
2018-09-18T04:24:30.698Z,100671.07
2018-09-18T04:26:58.920Z,100672.05
2018-09-18T04:29:27.125Z,100676.05
2018-09-18T04:31:55.358Z,100665.46
2018-09-18T04:34:23.582Z,100675.16
2018-09-18T04:36:52.878Z,100675.00
2018-09-18T04:39:21.158Z,100672.30
2018-09-18T04:41:50.456Z,100675.83
2018-09-18T04:44:18.673Z,100671.81
2018-09-18T04:46:46.900Z,100672.78
2018-09-18T04:49:15.145Z,100671.23
2018-09-18T04:51:43.446Z,100674.47
2018-09-18T04:54:11.674Z,100675.38
2018-09-18T04:56:39.890Z,100675.61
2018-09-18T04:59:08.179Z,100690.09
2018-09-18T05:01:36.481Z,100683.67
2018-09-18T05:04:04.721Z,100681.98
2018-09-18T05:06:33.029Z,100678.46
2018-09-18T05:09:01.249Z,100675.42
2018-09-18T05:11:29.549Z,100678.68
2018-09-18T05:13:57.927Z,100672.55
2018-09-18T05:16:26.081Z,100676.90
2018-09-18T05:18:54.445Z,100674.27
2018-09-18T05:21:23.697Z,100682.76
2018-09-18T05:23:51.935Z,100672.46
2018-09-18T05:26:20.146Z,100667.66
2018-09-18T05:28:49.389Z,100672.27
2018-09-18T05:31:17.686Z,100675.80
2018-09-18T05:33:47.068Z,100673.35
2018-09-18T05:36:15.282Z,100674.55
2018-09-18T05:38:43.582Z,100672.30
2018-09-18T05:41:11.860Z,100672.30
2018-09-18T05:43:41.193Z,100673.05
2018-09-18T05:46:10.494Z,100674.69
2018-09-18T05:48:38.790Z,100680.47
2018-09-18T05:51:07.105Z,100679.02
2018-09-18T05:53:35.326Z,100679.94
2018-09-18T05:56:04.574Z,100677.77
2018-09-18T05:58:32.798Z,100680.97
2018-09-18T06:01:01.040Z,100682.19
2018-09-18T06:03:29.332Z,100682.79
2018-09-18T06:05:57.559Z,100686.02
2018-09-18T06:08:25.777Z,100681.98
2018-09-18T06:10:54.087Z,100686.67
2018-09-18T06:13:22.319Z,100682.34
2018-09-18T06:15:50.565Z,100683.55
2018-09-18T06:18:18.884Z,100677.22
2018-09-18T06:20:47.089Z,100675.24
2018-09-18T06:23:15.344Z,100681.01
2018-09-18T06:25:43.575Z,100673.86
2018-09-18T06:28:11.791Z,100675.08
2018-09-18T06:30:40.002Z,100676.20
2018-09-18T06:33:08.446Z,100681.98
2018-09-18T06:35:36.681Z,100679.38
2018-09-18T06:38:04.990Z,100681.56
2018-09-18T06:40:33.216Z,100683.88
2018-09-18T06:43:01.434Z,100683.08
2018-09-18T06:45:29.666Z,100679.21
2018-09-18T06:47:57.913Z,100674.98
2018-09-18T06:50:26.119Z,100673.06
2018-09-18T06:52:54.348Z,100674.25
2018-09-18T06:55:22.581Z,100675.09
2018-09-18T06:57:50.812Z,100669.96
2018-09-18T07:00:19.947Z,100669.53
2018-09-18T07:02:49.214Z,100674.80
2018-09-18T07:05:17.442Z,100663.69
2018-09-18T07:07:45.658Z,100665.23
2018-09-18T07:10:13.897Z,100662.47
2018-09-18T07:12:42.142Z,100658.16
2018-09-18T07:15:10.367Z,100659.73
2018-09-18T07:17:38.582Z,100654.70
2018-09-18T07:20:07.062Z,100643.56
2018-09-18T07:22:35.278Z,100647.36
2018-09-18T07:25:03.503Z,100643.25
2018-09-18T07:27:31.773Z,100649.88
2018-09-18T07:30:00.002Z,100655.52
2018-09-18T07:32:28.201Z,100651.21
2018-09-18T07:34:56.423Z,100656.78
2018-09-18T07:37:24.621Z,100671.55
2018-09-18T07:39:52.855Z,100667.77
2018-09-18T07:42:21.065Z,100660.33
2018-09-18T07:44:49.289Z,100670.15
2018-09-18T07:47:17.501Z,100663.20
2018-09-18T07:49:45.734Z,100663.80
2018-09-18T07:52:14.003Z,100657.92
2018-09-18T07:54:42.165Z,100662.38
2018-09-18T07:57:10.378Z,100655.19
2018-09-18T07:59:38.606Z,100651.38
2018-09-18T08:02:06.894Z,100656.55
2018-09-18T08:04:35.114Z,100657.06
2018-09-18T08:07:03.941Z,100652.06
2018-09-18T08:09:32.183Z,100650.72
2018-09-18T08:12:00.407Z,100657.72
2018-09-18T08:14:28.618Z,100652.00
2018-09-18T08:16:56.855Z,100649.59
2018-09-18T08:19:25.180Z,100647.93
2018-09-18T08:21:53.304Z,100645.11
2018-09-18T08:24:21.513Z,100653.91
2018-09-18T08:26:49.762Z,100651.81
2018-09-18T08:29:17.961Z,100645.22
2018-09-18T08:31:48.210Z,100645.62
2018-09-18T08:34:16.441Z,100640.24
2018-09-18T08:36:44.650Z,100647.08
2018-09-18T08:39:12.878Z,100641.65
2018-09-18T08:41:41.140Z,100652.83
2018-09-18T08:44:09.369Z,100652.01
2018-09-18T08:46:37.585Z,100645.24
2018-09-18T08:49:05.860Z,100643.76
2018-09-18T08:51:35.224Z,100657.48
2018-09-18T08:54:03.450Z,100651.50
2018-09-18T08:56:31.726Z,100645.61
2018-09-18T08:58:59.980Z,100657.27
2018-09-18T09:01:28.215Z,100656.80
2018-09-18T09:03:56.524Z,100649.96
2018-09-18T09:06:24.720Z,100653.38
2018-09-18T09:08:53.133Z,100645.84
2018-09-18T09:11:21.179Z,100656.58
2018-09-18T09:13:49.407Z,100653.34
2018-09-18T09:16:17.646Z,100654.17
2018-09-18T09:18:45.873Z,100657.31
2018-09-18T09:21:14.198Z,100658.30
2018-09-18T09:23:42.332Z,100655.63
2018-09-18T09:26:10.574Z,100656.33
2018-09-18T09:28:38.829Z,100655.55
2018-09-18T09:31:07.097Z,100657.48
2018-09-18T09:33:35.354Z,100652.77
2018-09-18T09:36:03.565Z,100661.83
2018-09-18T09:38:31.803Z,100651.23
2018-09-18T09:41:01.108Z,100652.07
2018-09-18T09:43:29.345Z,100649.99
2018-09-18T09:45:57.590Z,100654.07
2018-09-18T09:48:25.821Z,100644.78
2018-09-18T09:50:54.093Z,100650.30
2018-09-18T09:53:22.333Z,100648.11
2018-09-18T09:55:50.566Z,100647.42
2018-09-18T09:58:18.798Z,100650.73
2018-09-18T10:01:53.821Z,100644.57
2018-09-18T10:04:22.134Z,100648.57
2018-09-18T10:06:50.361Z,100646.97
2018-09-18T10:09:18.576Z,100642.84
2018-09-18T10:11:46.807Z,100640.39
2018-09-18T10:14:15.072Z,100646.30
2018-09-18T10:16:43.277Z,100639.66
2018-09-18T10:19:12.532Z,100637.94
2018-09-18T10:21:40.787Z,100643.47
2018-09-18T10:24:09.787Z,100633.08
2018-09-18T10:26:38.096Z,100634.78
2018-09-18T10:29:06.412Z,100634.56
2018-09-18T10:31:34.597Z,100630.56
2018-09-18T10:34:02.846Z,100627.80
2018-09-18T10:36:31.058Z,100630.13
2018-09-18T10:38:59.281Z,100633.16
2018-09-18T10:41:27.805Z,100633.84
2018-09-18T10:43:56.078Z,100630.53
2018-09-18T10:46:24.722Z,100626.21
2018-09-18T10:48:55.753Z,100633.61
2018-09-18T10:51:23.991Z,100623.85
2018-09-18T10:53:52.226Z,100630.67
2018-09-18T10:56:20.456Z,100623.78
2018-09-18T10:58:48.678Z,100617.48
2018-09-18T11:01:17.016Z,100624.48
2018-09-18T11:03:45.223Z,100618.57
2018-09-18T11:06:13.921Z,100615.51
2018-09-18T11:08:42.127Z,100604.91
2018-09-18T11:11:10.382Z,100601.91
2018-09-18T11:13:38.602Z,100599.84
2018-09-18T11:16:07.265Z,100597.30
2018-09-18T11:18:35.344Z,100609.58
2018-09-18T11:21:03.682Z,100597.08
2018-09-18T11:23:31.958Z,100594.52
2018-09-18T11:26:00.142Z,100590.16
2018-09-18T11:28:28.377Z,100579.37
2018-09-18T11:30:56.608Z,100579.51
2018-09-18T11:33:24.880Z,100559.02
2018-09-18T11:35:53.088Z,100558.89
2018-09-18T11:38:21.303Z,100563.13
2018-09-18T11:40:49.566Z,100564.34
2018-09-18T11:43:17.784Z,100557.61
2018-09-18T11:45:46.172Z,100556.55
2018-09-18T11:48:14.262Z,100562.34
2018-09-18T11:50:43.546Z,100559.07
2018-09-18T11:53:11.770Z,100557.41
2018-09-18T11:55:41.141Z,100554.02
2018-09-18T11:58:12.823Z,100552.36
2018-09-18T12:00:43.519Z,100548.81
2018-09-18T12:03:12.798Z,100540.58
2018-09-18T12:05:43.137Z,100538.69
2018-09-18T12:08:13.725Z,100529.83
2018-09-18T12:10:43.903Z,100533.94
2018-09-18T12:13:14.103Z,100528.45
2018-09-18T12:15:43.396Z,100531.08
2018-09-18T12:18:12.691Z,100520.83
2018-09-18T12:20:41.846Z,100531.41
2018-09-18T12:23:10.934Z,100517.01
2018-09-18T12:25:40.057Z,100524.55
2018-09-18T12:28:09.188Z,100523.47
2018-09-18T12:30:38.414Z,100517.38
2018-09-18T12:33:09.053Z,100510.16
2018-09-18T12:35:39.202Z,100520.14
2018-09-18T12:38:09.158Z,100516.77
2018-09-18T12:40:38.452Z,100515.78
2018-09-18T12:43:07.737Z,100516.37
2018-09-18T12:45:36.876Z,100506.05
2018-09-18T12:48:06.251Z,100498.19
2018-09-18T12:50:35.684Z,100493.98
2018-09-18T12:53:04.687Z,100498.53
2018-09-18T12:55:34.898Z,100493.19
2018-09-18T12:58:06.781Z,100491.13
2018-09-18T13:00:36.801Z,100497.43
2018-09-18T13:03:05.614Z,100485.03
2018-09-18T13:05:36.071Z,100479.06
2018-09-18T13:08:04.341Z,100491.30
2018-09-18T13:10:32.606Z,100489.29
2018-09-18T13:13:00.827Z,100491.20
2018-09-18T13:15:29.085Z,100490.14
2018-09-18T13:17:57.334Z,100490.55
2018-09-18T13:20:25.601Z,100489.56
2018-09-18T13:22:53.894Z,100489.56
2018-09-18T13:25:22.151Z,100485.66
2018-09-18T13:27:50.502Z,100491.30
2018-09-18T13:30:19.816Z,100484.27
2018-09-18T13:32:48.070Z,100485.20
2018-09-18T13:35:16.273Z,100474.27
2018-09-18T13:37:46.548Z,100489.70
2018-09-18T13:40:14.819Z,100488.96
2018-09-18T13:42:43.037Z,100491.30
2018-09-18T13:45:11.266Z,100490.94
2018-09-18T13:47:39.501Z,100491.63
2018-09-18T13:50:08.189Z,100490.16
2018-09-18T13:52:36.435Z,100493.66
2018-09-18T13:55:04.690Z,100499.41
2018-09-18T13:57:32.938Z,100485.84
2018-09-18T14:00:01.277Z,100489.79
2018-09-18T14:02:29.533Z,100484.23
2018-09-18T14:04:58.813Z,100482.17
2018-09-18T14:07:26.958Z,100482.57
2018-09-18T14:09:55.210Z,100487.02
2018-09-18T14:12:23.429Z,100489.03
2018-09-18T14:14:51.700Z,100491.27
2018-09-18T14:17:19.902Z,100485.03
2018-09-18T14:19:48.133Z,100489.07
2018-09-18T14:22:16.343Z,100494.63
2018-09-18T14:24:44.586Z,100488.07
2018-09-18T14:27:12.797Z,100493.55
2018-09-18T14:29:41.104Z,100494.52
2018-09-18T14:32:10.417Z,100495.21
2018-09-18T14:34:38.753Z,100495.53
2018-09-18T14:37:07.074Z,100493.11
2018-09-18T14:39:35.301Z,100501.89
2018-09-18T14:42:03.542Z,100498.16
2018-09-18T14:44:31.793Z,100495.40
2018-09-18T14:47:00.093Z,100492.22
2018-09-18T14:49:28.228Z,100486.08
2018-09-18T14:51:56.570Z,100487.18
2018-09-18T14:54:24.783Z,100490.55
2018-09-18T14:56:54.079Z,100486.20
2018-09-18T14:59:22.402Z,100502.27
2018-09-18T15:01:50.714Z,100511.00
2018-09-18T15:04:18.961Z,100513.20
2018-09-18T15:06:47.281Z,100520.43
2018-09-18T15:09:15.466Z,100544.72
2018-09-18T15:11:43.678Z,100535.13
2018-09-18T15:14:11.898Z,100537.77
2018-09-18T15:16:40.143Z,100546.05
2018-09-18T15:19:08.914Z,100552.45
2018-09-18T15:21:37.140Z,100558.40
2018-09-18T15:24:05.385Z,100555.63
2018-09-18T15:26:33.602Z,100555.14
2018-09-18T15:29:01.837Z,100563.38
2018-09-18T15:31:30.109Z,100562.75
2018-09-18T15:33:58.393Z,100564.61
2018-09-18T15:36:27.606Z,100573.39
2018-09-18T15:38:55.848Z,100561.77
2018-09-18T15:41:24.083Z,100569.11
2018-09-18T15:43:52.546Z,100567.97
2018-09-18T15:46:20.774Z,100562.02
2018-09-18T15:48:49.051Z,100556.97
2018-09-18T15:51:17.384Z,100562.89
2018-09-18T15:53:45.610Z,100569.68
2018-09-18T15:56:13.831Z,100564.54
2018-09-18T15:58:42.094Z,100563.57
2018-09-18T16:01:10.361Z,100561.55
2018-09-18T16:03:38.589Z,100562.76
2018-09-18T16:06:06.809Z,100554.95
2018-09-18T16:08:35.067Z,100568.45
2018-09-18T16:11:03.339Z,100562.72
2018-09-18T16:13:31.579Z,100574.40
2018-09-18T16:16:00.202Z,100570.16
2018-09-18T16:18:29.192Z,100568.84
2018-09-18T16:20:57.713Z,100561.63
2018-09-18T16:23:25.949Z,100564.33
2018-09-18T16:25:54.182Z,100571.29
2018-09-18T16:28:22.399Z,100565.45
2018-09-18T16:30:51.840Z,100580.63
2018-09-18T16:33:19.935Z,100576.06
2018-09-18T16:35:48.201Z,100590.97
2018-09-18T16:38:16.438Z,100590.29
2018-09-18T16:40:44.736Z,100596.80
2018-09-18T16:43:12.914Z,100598.27
2018-09-18T16:45:41.162Z,100591.97
2018-09-18T16:48:09.493Z,100596.98
2018-09-18T16:50:37.809Z,100601.62
2018-09-18T16:53:06.084Z,100605.01
2018-09-18T16:55:34.289Z,100602.08
2018-09-18T16:58:02.502Z,100607.33
2018-09-18T17:00:30.739Z,100608.79
2018-09-18T17:02:58.929Z,100608.16
2018-09-18T17:05:27.189Z,100609.40
2018-09-18T17:07:57.426Z,100608.92
2018-09-18T17:10:25.759Z,100615.61
2018-09-18T17:12:53.940Z,100624.38
2018-09-18T17:15:22.179Z,100626.79
2018-09-18T17:17:50.398Z,100631.27
2018-09-18T17:20:18.621Z,100629.84
2018-09-18T17:22:46.843Z,100637.81
2018-09-18T17:25:15.075Z,100635.44
2018-09-18T17:27:43.284Z,100640.01
2018-09-18T17:30:11.562Z,100641.21
2018-09-18T17:32:39.805Z,100645.47
2018-09-18T17:35:08.315Z,100650.78
2018-09-18T17:37:36.793Z,100659.14
2018-09-18T17:40:05.155Z,100657.70
2018-09-18T17:42:33.363Z,100662.76
2018-09-18T17:45:01.974Z,100664.66
2018-09-18T17:47:30.235Z,100661.08
2018-09-18T17:49:58.411Z,100673.54
2018-09-18T17:52:26.654Z,100670.06
2018-09-18T17:54:54.886Z,100677.65
2018-09-18T17:57:23.095Z,100679.07
2018-09-18T17:59:51.318Z,100688.42
2018-09-18T18:02:19.837Z,100695.76
2018-09-18T18:04:48.055Z,100702.91
2018-09-18T18:07:16.296Z,100701.47
2018-09-18T18:09:44.519Z,100709.91
2018-09-18T18:12:12.751Z,100716.81
2018-09-18T18:14:41.031Z,100716.34
2018-09-18T18:17:09.272Z,100726.06
2018-09-18T18:19:37.482Z,100736.56
2018-09-18T18:22:05.970Z,100735.10
2018-09-18T18:24:34.177Z,100735.07
2018-09-18T18:27:02.406Z,100747.59
2018-09-18T18:29:30.655Z,100754.85
2018-09-18T18:31:58.831Z,100752.45
2018-09-18T18:34:27.037Z,100757.75
2018-09-18T18:36:55.270Z,100762.67
2018-09-18T18:39:23.505Z,100768.05
2018-09-18T18:41:51.755Z,100766.07
2018-09-18T18:44:20.026Z,100773.63
2018-09-18T18:46:48.240Z,100773.84
2018-09-18T18:49:16.461Z,100773.69
2018-09-18T18:51:44.675Z,100775.50
2018-09-18T18:54:12.887Z,100783.56
2018-09-18T18:56:41.198Z,100781.77
2018-09-18T18:59:09.362Z,100782.09
2018-09-18T19:01:37.614Z,100785.69
2018-09-18T19:04:05.865Z,100783.58
2018-09-18T19:06:34.312Z,100792.54
2018-09-18T19:09:02.514Z,100795.36
2018-09-18T19:11:30.798Z,100801.35
2018-09-18T19:13:59.005Z,100804.66
2018-09-18T19:16:27.280Z,100804.68
2018-09-18T19:18:55.563Z,100812.66
2018-09-18T19:21:29.296Z,100810.20
2018-09-18T19:23:57.562Z,100810.00
2018-09-18T19:26:25.786Z,100821.98
2018-09-18T19:28:54.696Z,100820.09
2018-09-18T19:31:22.901Z,100820.45
2018-09-18T19:33:51.280Z,100815.31
2018-09-18T19:36:19.507Z,100813.80
2018-09-18T19:38:47.721Z,100819.52
2018-09-18T19:41:15.952Z,100826.91
2018-09-18T19:43:44.162Z,100816.07
2018-09-18T19:46:12.727Z,100821.39
2018-09-18T19:48:41.213Z,100824.25
2018-09-18T19:51:09.471Z,100820.45
2018-09-18T19:53:37.751Z,100818.45
2018-09-18T19:56:06.169Z,100829.95
2018-09-18T19:58:35.431Z,100832.52
2018-09-18T20:01:03.740Z,100832.22
2018-09-18T20:03:31.962Z,100834.58
2018-09-18T20:06:00.179Z,100834.50
2018-09-18T20:08:28.435Z,100835.63
2018-09-18T20:10:56.658Z,100843.58
2018-09-18T20:13:24.906Z,100853.84
2018-09-18T20:15:53.257Z,100858.70
2018-09-18T20:18:21.606Z,100858.22
2018-09-18T20:20:49.925Z,100866.77
2018-09-18T20:23:18.113Z,100867.37
2018-09-18T20:25:47.648Z,100874.23
2018-09-18T20:28:15.880Z,100878.22
2018-09-18T20:30:44.126Z,100875.63
2018-09-18T20:33:13.422Z,100887.63
2018-09-18T20:35:41.709Z,100882.39
2018-09-18T20:38:09.903Z,100884.29
2018-09-18T20:40:38.221Z,100882.31
2018-09-18T20:43:06.701Z,100880.64
2018-09-18T20:45:34.938Z,100883.09
2018-09-18T20:48:06.625Z,100883.04
2018-09-18T20:50:34.927Z,100881.65
2018-09-18T20:53:03.074Z,100884.48
2018-09-18T20:55:31.313Z,100886.62
2018-09-18T20:58:00.630Z,100888.98
2018-09-18T21:00:28.871Z,100895.66
2018-09-18T21:02:57.103Z,100892.35
2018-09-18T21:05:25.348Z,100892.64
2018-09-18T21:07:53.592Z,100897.02
2018-09-18T21:10:21.828Z,100896.06
2018-09-18T21:12:50.064Z,100890.00
2018-09-18T21:15:18.286Z,100902.17
2018-09-18T21:17:46.545Z,100910.73
2018-09-18T21:20:14.775Z,100902.62
2018-09-18T21:22:42.986Z,100904.75
2018-09-18T21:25:15.010Z,100909.66
2018-09-18T21:27:44.458Z,100906.01
2018-09-18T21:30:13.141Z,100911.22
2018-09-18T21:32:41.387Z,100905.75
2018-09-18T21:35:09.921Z,100905.52
2018-09-18T21:37:38.303Z,100910.59
2018-09-18T21:40:06.556Z,100917.30
2018-09-18T21:42:34.812Z,100916.03
2018-09-18T21:45:03.381Z,100921.55
2018-09-18T21:47:31.657Z,100917.61
2018-09-18T21:49:59.884Z,100918.63
2018-09-18T21:52:28.094Z,100920.31
2018-09-18T21:54:56.462Z,100938.19
2018-09-18T21:57:24.669Z,100935.48
2018-09-18T21:59:52.888Z,100926.62
2018-09-18T22:02:21.158Z,100931.20
2018-09-18T22:04:49.385Z,100935.01
2018-09-18T22:07:17.601Z,100930.03
2018-09-18T22:09:45.815Z,100934.31
2018-09-18T22:12:14.040Z,100933.38
2018-09-18T22:14:42.259Z,100937.11
2018-09-18T22:17:10.503Z,100942.13
2018-09-18T22:19:38.710Z,100938.81
2018-09-18T22:22:06.992Z,100945.22
2018-09-18T22:24:35.236Z,100945.08
2018-09-18T22:27:03.486Z,100940.86
2018-09-18T22:29:31.694Z,100941.66
2018-09-18T22:31:59.917Z,100943.18
2018-09-18T22:34:28.239Z,100945.98
2018-09-18T22:36:56.430Z,100947.20
2018-09-18T22:39:24.675Z,100946.15
2018-09-18T22:41:52.853Z,100947.02
2018-09-18T22:44:21.070Z,100950.67
2018-09-18T22:46:49.290Z,100948.02
2018-09-18T22:49:17.494Z,100948.38
2018-09-18T22:51:45.719Z,100951.58
2018-09-18T22:54:13.925Z,100943.25
2018-09-18T22:56:42.137Z,100951.66
2018-09-18T22:59:10.345Z,100949.72
2018-09-18T23:01:38.584Z,100953.97
2018-09-18T23:04:06.827Z,100963.09
2018-09-18T23:06:35.053Z,100966.55
2018-09-18T23:09:03.324Z,100965.30
2018-09-18T23:11:31.527Z,100960.58
2018-09-18T23:13:59.745Z,100959.84
2018-09-18T23:16:27.973Z,100950.34
2018-09-18T23:18:56.259Z,100957.83
2018-09-18T23:21:24.435Z,100960.58
2018-09-18T23:23:52.655Z,100960.15
2018-09-18T23:26:20.870Z,100962.03
2018-09-18T23:28:49.083Z,100959.84
2018-09-18T23:31:17.303Z,100954.83
2018-09-18T23:33:45.745Z,100957.55
2018-09-18T23:36:13.962Z,100959.11
2018-09-18T23:38:42.217Z,100965.34
2018-09-18T23:41:10.417Z,100971.42
2018-09-18T23:43:38.635Z,100972.83
2018-09-18T23:46:06.902Z,100972.47
2018-09-18T23:48:35.187Z,100968.63
2018-09-18T23:51:03.362Z,100965.16
2018-09-18T23:53:31.603Z,100970.41
2018-09-18T23:55:59.814Z,100969.28
2018-09-18T23:58:28.026Z,100969.91
